Time,TemperatureF,DewpointF,PressureIn,WindDirection,WindDirectionDegrees,WindSpeedMPH,WindSpeedGustMPH,Humidity,HourlyPrecipIn,Conditions,Clouds,dailyrainin,SoftwareType,DateUTC
2013-07-02 00:02:00,62.0,61.0,30.01,SSW,205,0.0,1.0,96,0.01,,,2.33,,2013-07-02 04:02:00,
2013-07-02 00:11:00,62.0,61.0,30.01,SSW,205,0.0,0.0,96,0.00,,,2.33,,2013-07-02 04:11:00,
2013-07-02 00:32:00,62.0,61.0,30.01,SSW,205,0.0,0.0,95,0.00,,,2.33,,2013-07-02 04:32:00,
2013-07-02 00:42:00,62.0,61.0,30.01,SSW,205,0.0,0.0,95,0.00,,,2.33,,2013-07-02 04:42:00,
2013-07-02 00:54:00,62.0,61.0,30.01,SSW,205,0.0,0.0,95,0.00,,,2.33,,2013-07-02 04:54:00,
2013-07-02 01:02:00,62.0,61.0,30.02,SSW,205,0.0,2.0,96,0.00,,,2.33,,2013-07-02 05:02:00,
2013-07-02 01:22:00,62.0,61.0,30.03,SSW,205,0.0,0.0,96,0.00,,,2.33,,2013-07-02 05:22:00,
2013-07-02 01:32:00,62.0,61.0,30.03,SSW,205,0.0,1.0,96,0.00,,,2.33,,2013-07-02 05:32:00,
2013-07-02 01:43:00,62.0,61.0,30.03,SSW,205,0.0,1.0,96,0.00,,,2.33,,2013-07-02 05:43:00,
2013-07-02 01:53:00,62.0,61.0,30.03,SSW,205,0.0,2.0,96,0.00,,,2.33,,2013-07-02 05:53:00,
2013-07-02 02:12:00,63.0,62.0,30.02,SSW,205,0.0,1.0,96,0.00,,,2.33,,2013-07-02 06:12:00,
2013-07-02 02:23:00,63.0,62.0,30.02,SSW,205,0.0,1.0,96,0.00,,,2.33,,2013-07-02 06:23:00,
2013-07-02 02:34:00,63.0,62.0,30.02,SSW,205,0.0,1.0,96,0.00,,,2.33,,2013-07-02 06:34:00,
2013-07-02 02:43:00,63.0,62.0,30.02,SSW,205,0.0,2.0,96,0.00,,,2.33,,2013-07-02 06:43:00,
2013-07-02 02:53:00,63.0,62.0,30.02,SSW,205,0.0,0.0,96,0.00,,,2.33,,2013-07-02 06:53:00,
2013-07-02 03:01:00,63.0,62.0,30.01,SSW,205,0.0,2.0,96,0.00,,,2.33,,2013-07-02 07:01:00,
2013-07-02 03:12:00,63.0,62.0,30.01,SSW,205,0.0,2.0,96,0.00,,,2.33,,2013-07-02 07:12:00,
2013-07-02 03:22:00,62.0,61.0,30.02,SSW,205,0.0,1.0,96,0.00,,,2.33,,2013-07-02 07:22:00,
2013-07-02 03:34:00,62.0,61.0,30.02,SSW,205,0.0,1.0,96,0.00,,,2.33,,2013-07-02 07:34:00,
2013-07-02 03:44:00,62.0,61.0,30.02,SSW,205,0.0,1.0,96,0.00,,,2.33,,2013-07-02 07:44:00,
2013-07-02 03:53:00,62.0,61.0,30.02,SSW,205,0.0,1.0,96,0.00,,,2.33,,2013-07-02 07:53:00,
2013-07-02 04:02:00,62.0,61.0,30.02,SSW,205,0.0,3.0,96,0.00,,,2.33,,2013-07-02 08:02:00,
2013-07-02 04:12:00,62.0,61.0,30.02,SSW,205,0.0,3.0,96,0.00,,,2.33,,2013-07-02 08:12:00,
2013-07-02 04:44:00,62.0,61.0,30.02,SSW,205,0.0,1.0,96,0.00,,,2.33,,2013-07-02 08:44:00,
2013-07-02 04:53:00,63.0,62.0,30.03,SSW,206,0.0,2.0,96,0.00,,,2.33,,2013-07-02 08:53:00,
2013-07-02 05:02:00,63.0,62.0,30.03,SSW,206,0.0,2.0,96,0.00,,,2.33,,2013-07-02 09:02:00,
2013-07-02 05:11:00,63.0,62.0,30.03,SSW,205,0.0,0.0,96,0.00,,,2.33,,2013-07-02 09:11:00,
2013-07-02 05:33:00,63.0,62.0,30.03,SSW,205,0.0,0.0,96,0.00,,,2.29,,2013-07-02 09:33:00,
2013-07-02 05:43:00,63.0,62.0,30.03,SSW,205,0.0,1.0,96,0.00,,,2.29,,2013-07-02 09:43:00,
2013-07-02 05:52:00,63.0,62.0,30.03,SSW,205,0.0,0.0,96,0.00,,,2.29,,2013-07-02 09:52:00,
2013-07-02 06:01:00,63.0,62.0,30.03,SSW,205,0.0,0.0,96,0.00,,,2.29,,2013-07-02 10:01:00,
2013-07-02 06:11:00,63.0,62.0,30.03,SSW,205,0.0,0.0,96,0.00,,,2.29,,2013-07-02 10:11:00,
2013-07-02 06:33:00,63.0,62.0,30.03,SSW,205,0.0,0.0,96,0.00,,,1.22,,2013-07-02 10:33:00,
2013-07-02 06:44:00,63.0,62.0,30.04,SSW,205,0.0,0.0,96,0.00,,,1.22,,2013-07-02 10:44:00,
2013-07-02 06:52:00,63.0,62.0,30.05,SSW,205,0.0,2.0,96,0.00,,,1.22,,2013-07-02 10:52:00,
2013-07-02 07:11:00,63.0,62.0,30.05,SSW,205,0.0,3.0,96,0.00,,,1.22,,2013-07-02 11:11:00,
2013-07-02 07:33:00,63.0,62.0,30.06,SSW,204,0.0,3.0,96,0.00,,,1.08,,2013-07-02 11:33:00,
2013-07-02 07:42:00,63.0,62.0,30.06,SSW,204,0.0,1.0,96,0.00,,,1.08,,2013-07-02 11:42:00,
2013-07-02 07:52:00,64.0,63.0,30.06,SSW,204,0.0,2.0,96,0.00,,,1.08,,2013-07-02 11:52:00,
2013-07-02 08:01:00,64.0,63.0,30.06,SSW,204,0.0,2.0,96,0.00,,,1.08,,2013-07-02 12:01:00,
2013-07-02 08:43:00,65.0,64.0,30.07,SSW,204,0.0,1.0,95,0.00,,,1.08,,2013-07-02 12:43:00,
2013-07-02 08:52:00,65.0,64.0,30.07,SSW,204,0.0,1.0,95,0.00,,,1.08,,2013-07-02 12:52:00,
2013-07-02 09:01:00,65.0,64.0,30.08,SSW,204,0.0,1.0,95,0.00,,,1.08,,2013-07-02 13:01:00,
2013-07-02 09:22:00,66.0,65.0,30.08,SSW,204,0.0,4.0,95,0.00,,,1.08,,2013-07-02 13:22:00,
2013-07-02 09:34:00,68.0,65.0,30.08,SSW,204,0.0,4.0,91,0.00,,,1.08,,2013-07-02 13:34:00,
2013-07-02 09:43:00,67.0,65.0,30.09,SSW,204,0.0,1.0,92,0.00,,,1.08,,2013-07-02 13:43:00,
2013-07-02 10:02:00,68.0,66.0,30.09,SSW,204,0.0,2.0,93,0.00,,,1.08,,2013-07-02 14:02:00,
2013-07-02 10:11:00,68.0,66.0,30.09,SSW,204,0.0,2.0,93,0.00,,,1.08,,2013-07-02 14:11:00,
2013-07-02 10:22:00,68.0,65.0,30.10,SSW,205,0.0,2.0,91,0.00,,,1.08,,2013-07-02 14:22:00,
2013-07-02 10:33:00,68.0,66.0,30.09,SSW,205,0.0,1.0,92,0.00,,,1.08,,2013-07-02 14:33:00,
2013-07-02 10:43:00,68.0,66.0,30.10,SSW,204,0.0,0.0,92,0.00,,,1.08,,2013-07-02 14:43:00,
2013-07-02 11:02:00,69.0,66.0,30.10,SSW,204,0.0,3.0,90,0.00,,,1.08,,2013-07-02 15:02:00,
2013-07-02 11:12:00,70.0,67.0,30.10,SSW,204,0.0,3.0,91,0.00,,,1.08,,2013-07-02 15:12:00,
2013-07-02 11:33:00,72.0,68.0,30.10,SSW,204,1.0,3.0,88,0.00,,,1.08,,2013-07-02 15:33:00,
2013-07-02 11:44:00,73.0,69.0,30.10,SSW,204,0.0,3.0,86,0.00,,,1.08,,2013-07-02 15:44:00,
2013-07-02 12:22:00,76.0,70.0,30.10,SSW,204,1.0,3.0,83,0.00,,,1.08,,2013-07-02 16:22:00,
2013-07-02 12:33:00,73.0,66.0,30.09,SSW,203,0.0,3.0,79,0.00,,,1.08,,2013-07-02 16:33:00,
2013-07-02 12:43:00,76.0,68.0,30.09,SSW,204,0.0,4.0,76,0.00,,,1.08,,2013-07-02 16:43:00,
2013-07-02 13:02:00,74.0,67.0,30.09,SSW,204,0.0,3.0,80,0.00,,,1.08,,2013-07-02 17:02:00,
2013-07-02 13:22:00,72.0,66.0,30.10,SSW,204,0.0,2.0,81,0.00,,,1.08,,2013-07-02 17:22:00,
2013-07-02 14:02:00,70.0,66.0,30.10,SSW,204,0.0,1.0,87,0.00,,,1.08,,2013-07-02 18:02:00,
2013-07-02 14:12:00,74.0,68.0,30.10,SSW,204,0.0,1.0,81,0.00,,,1.08,,2013-07-02 18:12:00,
2013-07-02 15:12:00,75.0,69.0,30.10,SSW,204,0.0,3.0,81,0.00,,,1.08,,2013-07-02 19:12:00,
2013-07-02 15:34:00,73.0,69.0,30.10,SSW,204,0.0,1.0,86,0.00,,,1.08,,2013-07-02 19:34:00,
2013-07-02 15:43:00,71.0,67.0,30.10,SSW,204,0.0,3.0,86,0.00,,,1.08,,2013-07-02 19:43:00,
2013-07-02 15:53:00,71.0,67.0,30.10,SSW,204,0.0,3.0,86,0.00,,,1.08,,2013-07-02 19:53:00,
2013-07-02 16:02:00,70.0,66.0,30.10,SSW,205,0.0,2.0,88,0.00,,,1.08,,2013-07-02 20:02:00,
2013-07-02 16:11:00,70.0,67.0,30.10,SSW,205,0.0,2.0,89,0.00,,,1.08,,2013-07-02 20:11:00,
2013-07-02 16:33:00,70.0,67.0,30.10,SSW,204,0.0,3.0,89,0.00,,,1.08,,2013-07-02 20:33:00,
2013-07-02 16:43:00,71.0,67.0,30.10,SSW,204,0.0,2.0,88,0.00,,,1.08,,2013-07-02 20:43:00,
2013-07-02 17:02:00,70.0,66.0,30.10,SSW,204,0.0,2.0,88,0.00,,,1.08,,2013-07-02 21:02:00,
2013-07-02 17:22:00,70.0,66.0,30.10,SSW,204,0.0,1.0,88,0.00,,,1.08,,2013-07-02 21:22:00,
2013-07-02 17:33:00,70.0,67.0,30.10,SSW,204,0.0,2.0,89,0.00,,,1.08,,2013-07-02 21:33:00,
2013-07-02 17:44:00,69.0,66.0,30.10,SSW,204,0.0,1.0,90,0.00,,,1.08,,2013-07-02 21:44:00,
2013-07-02 17:52:00,69.0,66.0,30.10,SSW,204,0.0,1.0,90,0.00,,,1.08,,2013-07-02 21:52:00,
2013-07-02 18:01:00,68.0,66.0,30.10,SSW,204,0.0,1.0,92,0.00,,,1.08,,2013-07-02 22:01:00,
2013-07-02 18:11:00,68.0,66.0,30.10,SSW,204,0.0,1.0,93,0.00,,,1.08,,2013-07-02 22:11:00,
2013-07-02 18:34:00,67.0,65.0,30.11,SSW,204,0.0,2.0,93,0.00,,,1.08,,2013-07-02 22:34:00,
2013-07-02 18:43:00,68.0,66.0,30.11,SSW,205,0.0,2.0,94,0.00,,,1.08,,2013-07-02 22:43:00,
2013-07-02 18:53:00,68.0,66.0,30.11,SSW,204,0.0,4.0,93,0.00,,,1.08,,2013-07-02 22:53:00,
2013-07-02 19:01:00,68.0,66.0,30.11,SSW,204,0.0,4.0,93,0.00,,,1.08,,2013-07-02 23:01:00,
2013-07-02 19:12:00,68.0,66.0,30.11,SSW,204,0.0,2.0,93,0.00,,,1.08,,2013-07-02 23:12:00,
2013-07-02 19:22:00,68.0,66.0,30.12,SSW,204,0.0,1.0,93,0.00,,,1.08,,2013-07-02 23:22:00,
2013-07-02 19:33:00,68.0,66.0,30.12,SSW,204,0.0,1.0,93,0.00,,,1.08,,2013-07-02 23:33:00,
2013-07-02 19:44:00,67.0,65.0,30.12,SSW,204,0.0,3.0,94,0.00,,,1.08,,2013-07-02 23:44:00,
2013-07-02 19:52:00,67.0,65.0,30.12,SSW,204,0.0,1.0,94,0.00,,,1.08,,2013-07-02 23:52:00,
2013-07-02 20:01:00,67.0,65.0,30.12,SSW,204,0.0,1.0,94,0.00,,,1.08,,2013-07-03 00:01:00,
2013-07-02 20:11:00,67.0,65.0,30.13,SSW,204,0.0,1.0,94,0.00,,,1.08,,2013-07-03 00:11:00,
2013-07-02 20:33:00,67.0,65.0,30.13,SSW,204,0.0,1.0,94,0.00,,,0.89,,2013-07-03 00:33:00,
2013-07-02 20:44:00,67.0,65.0,30.14,SSW,204,0.0,1.0,94,0.00,,,0.89,,2013-07-03 00:44:00,
2013-07-02 20:52:00,67.0,65.0,30.14,SSW,204,0.0,1.0,94,0.00,,,0.89,,2013-07-03 00:52:00,
2013-07-02 21:01:00,67.0,66.0,30.14,SSW,205,0.0,2.0,95,0.00,,,0.89,,2013-07-03 01:01:00,
2013-07-02 21:11:00,66.0,65.0,30.14,SSW,204,0.0,3.0,95,0.00,,,0.89,,2013-07-03 01:11:00,
2013-07-02 21:22:00,66.0,65.0,30.14,SSW,204,0.0,3.0,95,0.00,,,0.89,,2013-07-03 01:22:00,
2013-07-02 21:33:00,66.0,65.0,30.15,SSW,204,0.0,4.0,95,0.00,,,0.24,,2013-07-03 01:33:00,
2013-07-02 21:42:00,66.0,65.0,30.15,SSW,204,0.0,4.0,95,0.00,,,0.24,,2013-07-03 01:42:00,
2013-07-02 22:05:00,66.0,65.0,30.15,SSW,204,0.0,1.0,95,0.00,,,0.24,,2013-07-03 02:05:00,
2013-07-02 22:14:00,66.0,65.0,30.16,SSW,204,0.0,1.0,95,0.00,,,0.24,,2013-07-03 02:14:00,
2013-07-02 22:39:00,66.0,65.0,30.16,SSW,204,0.0,3.0,96,0.00,,,0.01,,2013-07-03 02:39:00,
2013-07-02 22:55:00,65.0,64.0,30.16,SSW,204,0.0,3.0,96,0.00,,,0.01,,2013-07-03 02:55:00,
2013-07-02 23:25:00,65.0,64.0,30.16,SSW,204,0.0,3.0,96,0.00,,,0.01,,2013-07-03 03:25:00,
2013-07-02 23:36:00,65.0,64.0,30.17,SSW,204,0.0,4.0,96,0.00,,,0.00,,2013-07-03 03:36:00,